KEAU/EAU METAR and TAF weather

Enter ICAO airport designator
Station Type Date Time Source
KEAU METAR 2020/01/23 09:12 UTC NOAA

KEAU 230912Z AUTO 12003KT 2SM -SN BR FEW010 OVC024 M01/M03 A2995 RMK AO2 P0000 T10111033


Station Type Date Time Source
KEAU Decoded METAR 2020/01/23 09:12 UTC NOAA

EAU CLAIRE CHIPPEWA VALLEY, WI, United States (KEAU) 44-52N 091-29W
Jan 23, 2020 - 04:12 AM EST / 2020.01.23 0912 UTC
Wind: from the ESE (120 degrees) at 3 MPH (3 KT):0
Visibility: 2 mile(s):0
Sky conditions: overcast
Weather: light snow; mist
Precipitation last hour: A trace
Temperature: 30.0 F (-1.1 C)
Dew Point: 26.1 F (-3.3 C)
Relative Humidity: 84%
Pressure (altimeter): 29.95 in. Hg (1014 hPa)
ob: KEAU 230912Z AUTO 12003KT 2SM -SN BR FEW010 OVC024 M01/M03 A2995 RMK AO2 P0000 T10111033
cycle: 9

Station Type Date Time Source
KEAU TAF 2020/01/23 09:54 UTC NOAA

TAF
AMD KEAU 230851Z 2309/2406 VRB03KT 2SM -SN BR OVC025
FM231600 08004KT 1 1/2SM -SN BR OVC009
FM232100 06004KT 2SM -SN BR OVC009
FM240500 04003KT 3SM -SN BR OVC007

Example: see airport list